This is the latest recevied weather packets stored in our database for station/object VK2BLR. If no packets are shown the sender has not sent any weather packets the latest 10 day(s).
| Time | Temp. | Humidity | Pressure | Rain* | Wind** | Luminosity | Snow |
|---|---|---|---|---|---|---|---|
| 1787439991 | 16.67° C | 55% | 1023.4 hPa | 0 mm | - | - | - |
| 1787439091 | 16.11° C | 56% | 1023.6 hPa | 0 mm | - | - | - |
| 1787438191 | 15.56° C | 58% | 1023.4 hPa | 0 mm | - | - | - |
| 1787437290 | 15° C | 62% | 1023.7 hPa | 0 mm | - | - | - |
| 1787436391 | 13.89° C | 66% | 1023.7 hPa | 0 mm | - | - | - |
| 1787435491 | 12.22° C | 73% | 1023.6 hPa | 0 mm | - | - | - |
| 1787434591 | 10° C | 80% | 1023.5 hPa | 0 mm | - | - | - |
| 1787433690 | 7.22° C | 86% | 1023.6 hPa | 0 mm | - | - | - |
| 1787432791 | 5.56° C | 87% | 1023.4 hPa | 0 mm | - | - | - |
| 1787431891 | 5° C | 86% | 1023.2 hPa | 0 mm | - | - | - |
| 1787430991 | 5° C | 86% | 1023.2 hPa | 0 mm | - | - | - |
| 1787430092 | 5° C | 86% | 1023.1 hPa | 0 mm | - | - | - |
| 1787429191 | 5° C | 86% | 1023.1 hPa | 0 mm | - | - | - |
| 1787428292 | 5° C | 86% | 1023.2 hPa | 0 mm | - | - | - |
| 1787427390 | 5.56° C | 86% | 1023 hPa | 0 mm | - | - | - |
| 1787426491 | 5.56° C | 86% | 1023.1 hPa | 0 mm | - | - | - |
| 1787425592 | 5.56° C | 86% | 1023.1 hPa | 0 mm | - | - | - |
| 1787424691 | 5.56° C | 86% | 1023.3 hPa | 0 mm | - | - | - |
| 1787423791 | 5.56° C | 86% | 1023.2 hPa | 0 mm | - | - | - |
| 1787422891 | 6.11° C | 86% | 1023.3 hPa | 0 mm | - | - | - |
| 1787421992 | 6.11° C | 85% | 1023.2 hPa | 0 mm | - | - | - |
| 1787421090 | 6.11° C | 85% | 1023 hPa | 0 mm | - | - | - |
| 1787420191 | 6.67° C | 85% | 1023.2 hPa | 0 mm | - | - | - |
| 1787419291 | 6.67° C | 85% | 1023.3 hPa | 0 mm | - | - | - |
| 1787418392 | 6.67° C | 85% | 1023.2 hPa | 0 mm | - | - | - |
* Rain latest hour (hover to see other rain measurements)
** Current wind speed in m/s (hover to see current wind gust speed)